sensor_id;sensor_type;location;lat;lon;timestamp;pressure;altitude;pressure_sealevel;temperature
5571;BMP180;2808;51.240;6.794;2022-10-03T00:02:33;102007.00;;;11.30
5571;BMP180;2808;51.240;6.794;2022-10-03T00:05:22;102011.00;;;11.30
5571;BMP180;2808;51.240;6.794;2022-10-03T00:08:17;102014.00;;;11.20
5571;BMP180;2808;51.240;6.794;2022-10-03T00:10:55;102024.00;;;11.20
5571;BMP180;2808;51.240;6.794;2022-10-03T00:13:28;102026.00;;;11.20
5571;BMP180;2808;51.240;6.794;2022-10-03T00:16:07;102030.00;;;11.20
5571;BMP180;2808;51.240;6.794;2022-10-03T00:18:49;102022.00;;;11.20
5571;BMP180;2808;51.240;6.794;2022-10-03T00:21:35;102032.00;;;11.20
5571;BMP180;2808;51.240;6.794;2022-10-03T00:24:14;102035.00;;;11.20
5571;BMP180;2808;51.240;6.794;2022-10-03T00:26:50;102032.00;;;11.20
5571;BMP180;2808;51.240;6.794;2022-10-03T00:29:51;102035.00;;;11.20
5571;BMP180;2808;51.240;6.794;2022-10-03T00:32:32;102035.00;;;11.10
5571;BMP180;2808;51.240;6.794;2022-10-03T00:35:14;102026.00;;;11.10
5571;BMP180;2808;51.240;6.794;2022-10-03T00:37:53;102029.00;;;11.10
5571;BMP180;2808;51.240;6.794;2022-10-03T00:40:56;102038.00;;;11.00
5571;BMP180;2808;51.240;6.794;2022-10-03T00:46:44;102037.00;;;11.00
5571;BMP180;2808;51.240;6.794;2022-10-03T00:49:46;102039.00;;;11.00
5571;BMP180;2808;51.240;6.794;2022-10-03T00:52:35;102042.00;;;11.00
5571;BMP180;2808;51.240;6.794;2022-10-03T00:55:16;102044.00;;;10.90
5571;BMP180;2808;51.240;6.794;2022-10-03T00:57:57;102051.00;;;10.90
5571;BMP180;2808;51.240;6.794;2022-10-03T01:00:27;102046.00;;;10.90
5571;BMP180;2808;51.240;6.794;2022-10-03T01:03:13;102053.00;;;10.90
5571;BMP180;2808;51.240;6.794;2022-10-03T01:05:54;102048.00;;;10.90
5571;BMP180;2808;51.240;6.794;2022-10-03T01:08:41;102044.00;;;10.90
5571;BMP180;2808;51.240;6.794;2022-10-03T01:11:21;102051.00;;;10.90
5571;BMP180;2808;51.240;6.794;2022-10-03T01:14:06;102052.00;;;10.90
5571;BMP180;2808;51.240;6.794;2022-10-03T01:16:41;102063.00;;;10.90
5571;BMP180;2808;51.240;6.794;2022-10-03T01:19:27;102058.00;;;10.80
5571;BMP180;2808;51.240;6.794;2022-10-03T01:22:09;102049.00;;;10.80
5571;BMP180;2808;51.240;6.794;2022-10-03T01:24:52;102056.00;;;10.80
5571;BMP180;2808;51.240;6.794;2022-10-03T01:27:35;102056.00;;;10.80
5571;BMP180;2808;51.240;6.794;2022-10-03T01:30:26;102066.00;;;10.80
5571;BMP180;2808;51.240;6.794;2022-10-03T01:32:59;102054.00;;;10.80
5571;BMP180;2808;51.240;6.794;2022-10-03T01:35:37;102055.00;;;10.80
5571;BMP180;2808;51.240;6.794;2022-10-03T01:38:16;102059.00;;;10.70
5571;BMP180;2808;51.240;6.794;2022-10-03T01:40:52;102055.00;;;10.70
5571;BMP180;2808;51.240;6.794;2022-10-03T01:43:32;102055.00;;;10.70
5571;BMP180;2808;51.240;6.794;2022-10-03T01:46:10;102061.00;;;10.70
5571;BMP180;2808;51.240;6.794;2022-10-03T01:48:49;102056.00;;;10.70
5571;BMP180;2808;51.240;6.794;2022-10-03T01:51:22;102063.00;;;10.70
5571;BMP180;2808;51.240;6.794;2022-10-03T01:54:11;102057.00;;;10.70
5571;BMP180;2808;51.240;6.794;2022-10-03T01:56:45;102064.00;;;10.70
5571;BMP180;2808;51.240;6.794;2022-10-03T01:59:20;102073.00;;;10.70
5571;BMP180;2808;51.240;6.794;2022-10-03T02:01:54;102067.00;;;10.70
5571;BMP180;2808;51.240;6.794;2022-10-03T02:04:35;102078.00;;;10.70
5571;BMP180;2808;51.240;6.794;2022-10-03T02:07:13;102079.00;;;10.70
5571;BMP180;2808;51.240;6.794;2022-10-03T02:09:56;102086.00;;;10.70
5571;BMP180;2808;51.240;6.794;2022-10-03T02:12:28;102096.00;;;10.70
5571;BMP180;2808;51.240;6.794;2022-10-03T02:15:06;102089.00;;;10.70
5571;BMP180;2808;51.240;6.794;2022-10-03T02:17:45;102095.00;;;10.80
5571;BMP180;2808;51.240;6.794;2022-10-03T02:20:24;102091.00;;;10.80
5571;BMP180;2808;51.240;6.794;2022-10-03T02:22:55;102087.00;;;10.80
5571;BMP180;2808;51.240;6.794;2022-10-03T02:25:29;102089.00;;;10.80
5571;BMP180;2808;51.240;6.794;2022-10-03T02:28:27;102091.00;;;10.70
5571;BMP180;2808;51.240;6.794;2022-10-03T02:31:22;102087.00;;;10.60
5571;BMP180;2808;51.240;6.794;2022-10-03T02:34:20;102088.00;;;10.60
5571;BMP180;2808;51.240;6.794;2022-10-03T02:37:20;102091.00;;;10.60
5571;BMP180;2808;51.240;6.794;2022-10-03T02:40:31;102092.00;;;10.50
5571;BMP180;2808;51.240;6.794;2022-10-03T02:43:45;102093.00;;;10.50
5571;BMP180;2808;51.240;6.794;2022-10-03T02:46:40;102101.00;;;10.40
5571;BMP180;2808;51.240;6.794;2022-10-03T02:49:51;102101.00;;;10.40
5571;BMP180;2808;51.240;6.794;2022-10-03T02:55:56;102091.00;;;10.30
5571;BMP180;2808;51.240;6.794;2022-10-03T03:01:53;102101.00;;;10.30
5571;BMP180;2808;51.240;6.794;2022-10-03T03:08:12;102112.00;;;10.30
5571;BMP180;2808;51.240;6.794;2022-10-03T03:14:16;102116.00;;;10.30
5571;BMP180;2808;51.240;6.794;2022-10-03T03:16:54;102111.00;;;10.20
5571;BMP180;2808;51.240;6.794;2022-10-03T03:19:50;102111.00;;;10.20
5571;BMP180;2808;51.240;6.794;2022-10-03T03:22:36;102116.00;;;10.20
5571;BMP180;2808;51.240;6.794;2022-10-03T03:25:22;102121.00;;;10.30
5571;BMP180;2808;51.240;6.794;2022-10-03T03:28:16;102116.00;;;10.30
5571;BMP180;2808;51.240;6.794;2022-10-03T03:30:52;102112.00;;;10.30
5571;BMP180;2808;51.240;6.794;2022-10-03T03:33:27;102126.00;;;10.30
5571;BMP180;2808;51.240;6.794;2022-10-03T03:36:07;102120.00;;;10.30
5571;BMP180;2808;51.240;6.794;2022-10-03T03:38:45;102125.00;;;10.30
5571;BMP180;2808;51.240;6.794;2022-10-03T03:41:28;102119.00;;;10.30
5571;BMP180;2808;51.240;6.794;2022-10-03T03:44:13;102113.00;;;10.20
5571;BMP180;2808;51.240;6.794;2022-10-03T03:47:02;102119.00;;;10.20
5571;BMP180;2808;51.240;6.794;2022-10-03T03:49:48;102114.00;;;10.20
5571;BMP180;2808;51.240;6.794;2022-10-03T03:52:36;102121.00;;;10.20
5571;BMP180;2808;51.240;6.794;2022-10-03T03:55:31;102115.00;;;10.30
5571;BMP180;2808;51.240;6.794;2022-10-03T03:58:12;102116.00;;;10.30
5571;BMP180;2808;51.240;6.794;2022-10-03T04:00:57;102126.00;;;10.40
5571;BMP180;2808;51.240;6.794;2022-10-03T04:03:41;102112.00;;;10.40
5571;BMP180;2808;51.240;6.794;2022-10-03T04:06:24;102125.00;;;10.40
5571;BMP180;2808;51.240;6.794;2022-10-03T04:09:06;102126.00;;;10.40
5571;BMP180;2808;51.240;6.794;2022-10-03T04:11:46;102126.00;;;10.40
5571;BMP180;2808;51.240;6.794;2022-10-03T04:14:47;102125.00;;;10.40
5571;BMP180;2808;51.240;6.794;2022-10-03T04:17:30;102131.00;;;10.40
5571;BMP180;2808;51.240;6.794;2022-10-03T04:20:30;102143.00;;;10.40
5571;BMP180;2808;51.240;6.794;2022-10-03T04:23:12;102135.00;;;10.40
5571;BMP180;2808;51.240;6.794;2022-10-03T04:25:52;102140.00;;;10.40
5571;BMP180;2808;51.240;6.794;2022-10-03T04:28:43;102139.00;;;10.40
5571;BMP180;2808;51.240;6.794;2022-10-03T04:31:28;102143.00;;;10.40
5571;BMP180;2808;51.240;6.794;2022-10-03T04:34:10;102138.00;;;10.40
5571;BMP180;2808;51.240;6.794;2022-10-03T04:36:53;102133.00;;;10.40
5571;BMP180;2808;51.240;6.794;2022-10-03T04:39:31;102137.00;;;10.30
5571;BMP180;2808;51.240;6.794;2022-10-03T04:42:11;102129.00;;;10.30
5571;BMP180;2808;51.240;6.794;2022-10-03T04:44:56;102136.00;;;10.30
5571;BMP180;2808;51.240;6.794;2022-10-03T04:47:31;102140.00;;;10.30
5571;BMP180;2808;51.240;6.794;2022-10-03T04:50:05;102141.00;;;10.30
5571;BMP180;2808;51.240;6.794;2022-10-03T04:52:40;102135.00;;;10.30
5571;BMP180;2808;51.240;6.794;2022-10-03T04:55:19;102141.00;;;10.30
5571;BMP180;2808;51.240;6.794;2022-10-03T04:57:57;102137.00;;;10.20
5571;BMP180;2808;51.240;6.794;2022-10-03T05:00:30;102130.00;;;10.20
5571;BMP180;2808;51.240;6.794;2022-10-03T05:03:05;102137.00;;;10.20
5571;BMP180;2808;51.240;6.794;2022-10-03T05:05:44;102127.00;;;10.20
5571;BMP180;2808;51.240;6.794;2022-10-03T05:08:20;102142.00;;;10.20
5571;BMP180;2808;51.240;6.794;2022-10-03T05:11:00;102134.00;;;10.10
5571;BMP180;2808;51.240;6.794;2022-10-03T05:13:43;102137.00;;;10.10
5571;BMP180;2808;51.240;6.794;2022-10-03T05:16:22;102141.00;;;10.10
5571;BMP180;2808;51.240;6.794;2022-10-03T05:18:54;102141.00;;;10.10
5571;BMP180;2808;51.240;6.794;2022-10-03T05:21:32;102149.00;;;10.20
5571;BMP180;2808;51.240;6.794;2022-10-03T05:24:11;102150.00;;;10.20
5571;BMP180;2808;51.240;6.794;2022-10-03T05:26:45;102158.00;;;10.20
5571;BMP180;2808;51.240;6.794;2022-10-03T05:29:26;102152.00;;;10.20
5571;BMP180;2808;51.240;6.794;2022-10-03T05:32:10;102158.00;;;10.20
5571;BMP180;2808;51.240;6.794;2022-10-03T05:34:51;102167.00;;;10.20
5571;BMP180;2808;51.240;6.794;2022-10-03T05:37:42;102164.00;;;10.20
5571;BMP180;2808;51.240;6.794;2022-10-03T05:40:17;102164.00;;;10.20
5571;BMP180;2808;51.240;6.794;2022-10-03T05:43:02;102170.00;;;10.30
5571;BMP180;2808;51.240;6.794;2022-10-03T05:45:46;102170.00;;;10.30
5571;BMP180;2808;51.240;6.794;2022-10-03T05:48:24;102176.00;;;10.30
5571;BMP180;2808;51.240;6.794;2022-10-03T05:51:18;102166.00;;;10.30
5571;BMP180;2808;51.240;6.794;2022-10-03T05:54:16;102166.00;;;10.30
5571;BMP180;2808;51.240;6.794;2022-10-03T05:57:08;102185.00;;;10.30
5571;BMP180;2808;51.240;6.794;2022-10-03T06:05:43;102186.00;;;10.30
5571;BMP180;2808;51.240;6.794;2022-10-03T06:08:40;102191.00;;;10.40
5571;BMP180;2808;51.240;6.794;2022-10-03T06:11:19;102189.00;;;10.50
5571;BMP180;2808;51.240;6.794;2022-10-03T06:14:25;102190.00;;;10.50
5571;BMP180;2808;51.240;6.794;2022-10-03T06:17:01;102186.00;;;10.50
5571;BMP180;2808;51.240;6.794;2022-10-03T06:19:44;102187.00;;;10.60
5571;BMP180;2808;51.240;6.794;2022-10-03T06:23:01;102190.00;;;10.60
5571;BMP180;2808;51.240;6.794;2022-10-03T06:26:18;102186.00;;;10.60
5571;BMP180;2808;51.240;6.794;2022-10-03T06:29:01;102199.00;;;10.60
5571;BMP180;2808;51.240;6.794;2022-10-03T06:31:58;102200.00;;;10.60
5571;BMP180;2808;51.240;6.794;2022-10-03T06:41:21;102197.00;;;10.90
5571;BMP180;2808;51.240;6.794;2022-10-03T06:44:22;102200.00;;;11.00
5571;BMP180;2808;51.240;6.794;2022-10-03T06:47:21;102197.00;;;11.00
5571;BMP180;2808;51.240;6.794;2022-10-03T06:53:32;102192.00;;;11.00
5571;BMP180;2808;51.240;6.794;2022-10-03T07:05:48;102206.00;;;11.30
5571;BMP180;2808;51.240;6.794;2022-10-03T07:11:51;102199.00;;;12.10
5571;BMP180;2808;51.240;6.794;2022-10-03T07:14:59;102220.00;;;12.30
5571;BMP180;2808;51.240;6.794;2022-10-03T07:17:45;102209.00;;;12.40
5571;BMP180;2808;51.240;6.794;2022-10-03T07:23:41;102223.00;;;12.30
5571;BMP180;2808;51.240;6.794;2022-10-03T07:26:30;102219.00;;;12.20
5571;BMP180;2808;51.240;6.794;2022-10-03T07:29:22;102232.00;;;12.20
5571;BMP180;2808;51.240;6.794;2022-10-03T07:32:10;102226.00;;;12.20
5571;BMP180;2808;51.240;6.794;2022-10-03T07:35:16;102224.00;;;12.20
5571;BMP180;2808;51.240;6.794;2022-10-03T07:38:17;102233.00;;;12.20
5571;BMP180;2808;51.240;6.794;2022-10-03T07:41:31;102234.00;;;12.20
5571;BMP180;2808;51.240;6.794;2022-10-03T07:44:34;102233.00;;;12.30
5571;BMP180;2808;51.240;6.794;2022-10-03T07:47:31;102243.00;;;12.40
5571;BMP180;2808;51.240;6.794;2022-10-03T08:00:14;102249.00;;;12.60
5571;BMP180;2808;51.240;6.794;2022-10-03T08:03:23;102249.00;;;12.70
5571;BMP180;2808;51.240;6.794;2022-10-03T08:06:20;102252.00;;;12.80
5571;BMP180;2808;51.240;6.794;2022-10-03T08:15:09;102262.00;;;12.90
5571;BMP180;2808;51.240;6.794;2022-10-03T08:20:45;102268.00;;;12.90
5571;BMP180;2808;51.240;6.794;2022-10-03T08:26:46;102269.00;;;13.90
5571;BMP180;2808;51.240;6.794;2022-10-03T08:29:26;102266.00;;;14.40
5571;BMP180;2808;51.240;6.794;2022-10-03T08:44:48;102278.00;;;16.30
5571;BMP180;2808;51.240;6.794;2022-10-03T08:47:41;102273.00;;;16.50
5571;BMP180;2808;51.240;6.794;2022-10-03T08:53:54;102272.00;;;15.60
5571;BMP180;2808;51.240;6.794;2022-10-03T08:56:37;102269.00;;;15.30
5571;BMP180;2808;51.240;6.794;2022-10-03T09:06:05;102254.00;;;15.70
5571;BMP180;2808;51.240;6.794;2022-10-03T09:15:06;102252.00;;;16.30
5571;BMP180;2808;51.240;6.794;2022-10-03T09:18:07;102252.00;;;16.50
5571;BMP180;2808;51.240;6.794;2022-10-03T09:21:13;102254.00;;;16.70
5571;BMP180;2808;51.240;6.794;2022-10-03T09:24:23;102259.00;;;16.60
5571;BMP180;2808;51.240;6.794;2022-10-03T09:27:19;102253.00;;;16.70
5571;BMP180;2808;51.240;6.794;2022-10-03T09:30:20;102258.00;;;16.70
5571;BMP180;2808;51.240;6.794;2022-10-03T09:36:07;102260.00;;;17.00
5571;BMP180;2808;51.240;6.794;2022-10-03T09:45:21;102247.00;;;17.30
5571;BMP180;2808;51.240;6.794;2022-10-03T09:51:19;102247.00;;;16.90
5571;BMP180;2808;51.240;6.794;2022-10-03T09:57:18;102239.00;;;17.00
5571;BMP180;2808;51.240;6.794;2022-10-03T10:03:27;102242.00;;;17.40
5571;BMP180;2808;51.240;6.794;2022-10-03T10:06:37;102233.00;;;17.40
5571;BMP180;2808;51.240;6.794;2022-10-03T10:09:44;102241.00;;;17.50
5571;BMP180;2808;51.240;6.794;2022-10-03T10:12:46;102242.00;;;17.50
5571;BMP180;2808;51.240;6.794;2022-10-03T10:15:37;102242.00;;;17.50
5571;BMP180;2808;51.240;6.794;2022-10-03T10:27:57;102232.00;;;17.30
5571;BMP180;2808;51.240;6.794;2022-10-03T10:30:47;102234.00;;;17.50
5571;BMP180;2808;51.240;6.794;2022-10-03T10:36:52;102233.00;;;17.70
5571;BMP180;2808;51.240;6.794;2022-10-03T10:46:09;102212.00;;;17.90
5571;BMP180;2808;51.240;6.794;2022-10-03T10:49:24;102212.00;;;17.90
5571;BMP180;2808;51.240;6.794;2022-10-03T10:52:22;102215.00;;;17.60
5571;BMP180;2808;51.240;6.794;2022-10-03T10:58:41;102216.00;;;17.50
5571;BMP180;2808;51.240;6.794;2022-10-03T11:10:42;102221.00;;;17.50
5571;BMP180;2808;51.240;6.794;2022-10-03T11:17:02;102219.00;;;17.40
5571;BMP180;2808;51.240;6.794;2022-10-03T11:20:29;102220.00;;;17.40
5571;BMP180;2808;51.240;6.794;2022-10-03T11:26:56;102225.00;;;17.30
5571;BMP180;2808;51.240;6.794;2022-10-03T11:30:02;102229.00;;;17.30
5571;BMP180;2808;51.240;6.794;2022-10-03T11:36:13;102211.00;;;17.40
5571;BMP180;2808;51.240;6.794;2022-10-03T11:38:54;102212.00;;;17.40
5571;BMP180;2808;51.240;6.794;2022-10-03T11:41:44;102206.00;;;17.50
5571;BMP180;2808;51.240;6.794;2022-10-03T11:44:23;102206.00;;;17.50
5571;BMP180;2808;51.240;6.794;2022-10-03T11:47:24;102206.00;;;17.50
5571;BMP180;2808;51.240;6.794;2022-10-03T11:53:31;102204.00;;;17.80
5571;BMP180;2808;51.240;6.794;2022-10-03T11:59:02;102200.00;;;18.10
5571;BMP180;2808;51.240;6.794;2022-10-03T12:01:43;102195.00;;;18.20
5571;BMP180;2808;51.240;6.794;2022-10-03T12:04:22;102197.00;;;18.30
5571;BMP180;2808;51.240;6.794;2022-10-03T12:06:58;102189.00;;;18.50
5571;BMP180;2808;51.240;6.794;2022-10-03T12:10:02;102194.00;;;18.50
5571;BMP180;2808;51.240;6.794;2022-10-03T12:12:44;102193.00;;;18.50
5571;BMP180;2808;51.240;6.794;2022-10-03T12:15:31;102191.00;;;18.60
5571;BMP180;2808;51.240;6.794;2022-10-03T12:18:05;102187.00;;;18.70
5571;BMP180;2808;51.240;6.794;2022-10-03T12:20:56;102187.00;;;18.80
5571;BMP180;2808;51.240;6.794;2022-10-03T12:23:46;102188.00;;;18.80
5571;BMP180;2808;51.240;6.794;2022-10-03T12:26:26;102188.00;;;18.70
5571;BMP180;2808;51.240;6.794;2022-10-03T12:28:55;102180.00;;;18.70
5571;BMP180;2808;51.240;6.794;2022-10-03T12:31:28;102186.00;;;18.60
5571;BMP180;2808;51.240;6.794;2022-10-03T12:34:10;102190.00;;;18.60
5571;BMP180;2808;51.240;6.794;2022-10-03T12:36:49;102189.00;;;18.60
5571;BMP180;2808;51.240;6.794;2022-10-03T12:39:32;102182.00;;;18.70
5571;BMP180;2808;51.240;6.794;2022-10-03T12:42:19;102179.00;;;18.80
5571;BMP180;2808;51.240;6.794;2022-10-03T12:44:56;102181.00;;;18.90
5571;BMP180;2808;51.240;6.794;2022-10-03T12:47:49;102177.00;;;18.90
5571;BMP180;2808;51.240;6.794;2022-10-03T12:50:36;102187.00;;;19.00
5571;BMP180;2808;51.240;6.794;2022-10-03T12:53:24;102182.00;;;19.00
5571;BMP180;2808;51.240;6.794;2022-10-03T12:56:04;102186.00;;;19.10
5571;BMP180;2808;51.240;6.794;2022-10-03T12:58:44;102187.00;;;19.10
5571;BMP180;2808;51.240;6.794;2022-10-03T13:01:27;102187.00;;;19.00
5571;BMP180;2808;51.240;6.794;2022-10-03T13:03:59;102190.00;;;18.80
5571;BMP180;2808;51.240;6.794;2022-10-03T13:06:41;102185.00;;;18.80
5571;BMP180;2808;51.240;6.794;2022-10-03T13:09:24;102182.00;;;18.80
5571;BMP180;2808;51.240;6.794;2022-10-03T13:12:02;102185.00;;;18.60
5571;BMP180;2808;51.240;6.794;2022-10-03T13:17:36;102180.00;;;18.10
5571;BMP180;2808;51.240;6.794;2022-10-03T13:20:13;102168.00;;;18.00
5571;BMP180;2808;51.240;6.794;2022-10-03T13:22:46;102172.00;;;18.00
5571;BMP180;2808;51.240;6.794;2022-10-03T13:25:21;102163.00;;;18.10
5571;BMP180;2808;51.240;6.794;2022-10-03T13:28:00;102161.00;;;18.10
5571;BMP180;2808;51.240;6.794;2022-10-03T13:30:40;102160.00;;;18.10
5571;BMP180;2808;51.240;6.794;2022-10-03T13:33:14;102157.00;;;18.20
5571;BMP180;2808;51.240;6.794;2022-10-03T13:35:47;102158.00;;;18.30
5571;BMP180;2808;51.240;6.794;2022-10-03T13:38:50;102158.00;;;18.20
5571;BMP180;2808;51.240;6.794;2022-10-03T13:41:32;102155.00;;;18.20
5571;BMP180;2808;51.240;6.794;2022-10-03T13:44:11;102158.00;;;18.30
5571;BMP180;2808;51.240;6.794;2022-10-03T13:46:43;102151.00;;;18.30
5571;BMP180;2808;51.240;6.794;2022-10-03T13:49:24;102154.00;;;18.30
5571;BMP180;2808;51.240;6.794;2022-10-03T13:51:59;102147.00;;;18.30
5571;BMP180;2808;51.240;6.794;2022-10-03T13:55:01;102144.00;;;18.30
5571;BMP180;2808;51.240;6.794;2022-10-03T13:57:44;102141.00;;;18.20
5571;BMP180;2808;51.240;6.794;2022-10-03T14:00:20;102136.00;;;18.10
5571;BMP180;2808;51.240;6.794;2022-10-03T14:03:07;102142.00;;;18.10
5571;BMP180;2808;51.240;6.794;2022-10-03T14:05:54;102141.00;;;18.10
5571;BMP180;2808;51.240;6.794;2022-10-03T14:08:41;102138.00;;;18.10
5571;BMP180;2808;51.240;6.794;2022-10-03T14:11:19;102143.00;;;18.10
5571;BMP180;2808;51.240;6.794;2022-10-03T14:14:10;102140.00;;;18.10
5571;BMP180;2808;51.240;6.794;2022-10-03T14:16:48;102131.00;;;18.00
5571;BMP180;2808;51.240;6.794;2022-10-03T14:19:28;102137.00;;;18.10
5571;BMP180;2808;51.240;6.794;2022-10-03T14:22:09;102136.00;;;18.10
5571;BMP180;2808;51.240;6.794;2022-10-03T14:25:02;102128.00;;;18.10
5571;BMP180;2808;51.240;6.794;2022-10-03T14:27:53;102143.00;;;18.10
5571;BMP180;2808;51.240;6.794;2022-10-03T14:30:22;102131.00;;;18.00
5571;BMP180;2808;51.240;6.794;2022-10-03T14:33:02;102135.00;;;17.90
5571;BMP180;2808;51.240;6.794;2022-10-03T14:35:39;102131.00;;;17.90
5571;BMP180;2808;51.240;6.794;2022-10-03T14:38:22;102137.00;;;18.00
5571;BMP180;2808;51.240;6.794;2022-10-03T14:41:18;102128.00;;;18.00
5571;BMP180;2808;51.240;6.794;2022-10-03T14:43:50;102122.00;;;18.00
5571;BMP180;2808;51.240;6.794;2022-10-03T14:46:19;102122.00;;;18.00
5571;BMP180;2808;51.240;6.794;2022-10-03T14:48:54;102113.00;;;18.00
5571;BMP180;2808;51.240;6.794;2022-10-03T14:51:28;102108.00;;;18.00
5571;BMP180;2808;51.240;6.794;2022-10-03T14:53:58;102114.00;;;18.00
5571;BMP180;2808;51.240;6.794;2022-10-03T14:56:34;102104.00;;;17.90
5571;BMP180;2808;51.240;6.794;2022-10-03T14:59:15;102098.00;;;17.80
5571;BMP180;2808;51.240;6.794;2022-10-03T15:02:26;102113.00;;;17.70
5571;BMP180;2808;51.240;6.794;2022-10-03T15:05:01;102102.00;;;17.70
5571;BMP180;2808;51.240;6.794;2022-10-03T15:07:35;102104.00;;;17.60
5571;BMP180;2808;51.240;6.794;2022-10-03T15:10:10;102096.00;;;17.60
5571;BMP180;2808;51.240;6.794;2022-10-03T15:12:47;102103.00;;;17.60
5571;BMP180;2808;51.240;6.794;2022-10-03T15:15:19;102112.00;;;17.60
5571;BMP180;2808;51.240;6.794;2022-10-03T15:17:51;102109.00;;;17.60
5571;BMP180;2808;51.240;6.794;2022-10-03T15:20:24;102104.00;;;17.50
5571;BMP180;2808;51.240;6.794;2022-10-03T15:22:55;102104.00;;;17.50
5571;BMP180;2808;51.240;6.794;2022-10-03T15:25:26;102102.00;;;17.50
5571;BMP180;2808;51.240;6.794;2022-10-03T15:27:57;102097.00;;;17.40
5571;BMP180;2808;51.240;6.794;2022-10-03T15:30:29;102094.00;;;17.50
5571;BMP180;2808;51.240;6.794;2022-10-03T15:33:04;102085.00;;;17.50
5571;BMP180;2808;51.240;6.794;2022-10-03T15:35:39;102077.00;;;17.50
5571;BMP180;2808;51.240;6.794;2022-10-03T15:38:20;102088.00;;;17.40
5571;BMP180;2808;51.240;6.794;2022-10-03T15:40:53;102077.00;;;17.30
5571;BMP180;2808;51.240;6.794;2022-10-03T15:43:34;102083.00;;;17.30
5571;BMP180;2808;51.240;6.794;2022-10-03T15:46:11;102081.00;;;17.20
5571;BMP180;2808;51.240;6.794;2022-10-03T15:48:40;102075.00;;;17.10
5571;BMP180;2808;51.240;6.794;2022-10-03T15:51:17;102083.00;;;17.10
5571;BMP180;2808;51.240;6.794;2022-10-03T15:53:48;102079.00;;;17.00
5571;BMP180;2808;51.240;6.794;2022-10-03T15:56:22;102066.00;;;17.00
5571;BMP180;2808;51.240;6.794;2022-10-03T15:58:57;102071.00;;;16.90
5571;BMP180;2808;51.240;6.794;2022-10-03T16:01:27;102068.00;;;16.90
5571;BMP180;2808;51.240;6.794;2022-10-03T16:03:58;102073.00;;;16.90
5571;BMP180;2808;51.240;6.794;2022-10-03T16:06:32;102063.00;;;16.80
5571;BMP180;2808;51.240;6.794;2022-10-03T16:09:17;102074.00;;;16.80
5571;BMP180;2808;51.240;6.794;2022-10-03T16:11:58;102079.00;;;16.80
5571;BMP180;2808;51.240;6.794;2022-10-03T16:14:38;102071.00;;;16.70
5571;BMP180;2808;51.240;6.794;2022-10-03T16:17:17;102070.00;;;16.70
5571;BMP180;2808;51.240;6.794;2022-10-03T16:19:51;102068.00;;;16.70
5571;BMP180;2808;51.240;6.794;2022-10-03T16:22:27;102063.00;;;16.60
5571;BMP180;2808;51.240;6.794;2022-10-03T16:25:05;102059.00;;;16.60
5571;BMP180;2808;51.240;6.794;2022-10-03T16:27:37;102052.00;;;16.50
5571;BMP180;2808;51.240;6.794;2022-10-03T16:30:20;102059.00;;;16.40
5571;BMP180;2808;51.240;6.794;2022-10-03T16:32:56;102046.00;;;16.40
5571;BMP180;2808;51.240;6.794;2022-10-03T16:35:37;102051.00;;;16.40
5571;BMP180;2808;51.240;6.794;2022-10-03T16:38:19;102055.00;;;16.40
5571;BMP180;2808;51.240;6.794;2022-10-03T16:40:54;102053.00;;;16.30
5571;BMP180;2808;51.240;6.794;2022-10-03T16:43:22;102049.00;;;16.30
5571;BMP180;2808;51.240;6.794;2022-10-03T16:45:51;102046.00;;;16.30
5571;BMP180;2808;51.240;6.794;2022-10-03T16:48:22;102034.00;;;16.20
5571;BMP180;2808;51.240;6.794;2022-10-03T16:51:17;102037.00;;;16.10
5571;BMP180;2808;51.240;6.794;2022-10-03T16:53:51;102037.00;;;16.00
5571;BMP180;2808;51.240;6.794;2022-10-03T16:56:24;102036.00;;;16.00
5571;BMP180;2808;51.240;6.794;2022-10-03T16:58:54;102038.00;;;16.00
5571;BMP180;2808;51.240;6.794;2022-10-03T17:01:31;102045.00;;;15.90
5571;BMP180;2808;51.240;6.794;2022-10-03T17:04:19;102045.00;;;15.90
5571;BMP180;2808;51.240;6.794;2022-10-03T17:06:48;102034.00;;;15.90
5571;BMP180;2808;51.240;6.794;2022-10-03T17:09:26;102035.00;;;15.80
5571;BMP180;2808;51.240;6.794;2022-10-03T17:11:58;102037.00;;;15.80
5571;BMP180;2808;51.240;6.794;2022-10-03T17:14:32;102033.00;;;15.80
5571;BMP180;2808;51.240;6.794;2022-10-03T17:17:03;102027.00;;;15.70
5571;BMP180;2808;51.240;6.794;2022-10-03T17:19:36;102032.00;;;15.70
5571;BMP180;2808;51.240;6.794;2022-10-03T17:22:12;102030.00;;;15.60
5571;BMP180;2808;51.240;6.794;2022-10-03T17:24:50;102027.00;;;15.60
5571;BMP180;2808;51.240;6.794;2022-10-03T17:27:25;102025.00;;;15.50
5571;BMP180;2808;51.240;6.794;2022-10-03T17:29:57;102023.00;;;15.40
5571;BMP180;2808;51.240;6.794;2022-10-03T17:32:32;102031.00;;;15.40
5571;BMP180;2808;51.240;6.794;2022-10-03T17:35:09;102021.00;;;15.30
5571;BMP180;2808;51.240;6.794;2022-10-03T17:38:08;102026.00;;;15.30
5571;BMP180;2808;51.240;6.794;2022-10-03T17:40:58;102018.00;;;15.20
5571;BMP180;2808;51.240;6.794;2022-10-03T17:43:37;102032.00;;;15.10
5571;BMP180;2808;51.240;6.794;2022-10-03T17:46:13;102022.00;;;15.10
5571;BMP180;2808;51.240;6.794;2022-10-03T17:48:48;102027.00;;;15.10
5571;BMP180;2808;51.240;6.794;2022-10-03T17:51:29;102025.00;;;15.00
5571;BMP180;2808;51.240;6.794;2022-10-03T17:53:59;102029.00;;;14.90
5571;BMP180;2808;51.240;6.794;2022-10-03T17:56:30;102026.00;;;14.90
5571;BMP180;2808;51.240;6.794;2022-10-03T17:59:03;102031.00;;;14.90
5571;BMP180;2808;51.240;6.794;2022-10-03T18:01:35;102042.00;;;14.80
5571;BMP180;2808;51.240;6.794;2022-10-03T18:04:13;102031.00;;;14.70
5571;BMP180;2808;51.240;6.794;2022-10-03T18:06:46;102033.00;;;14.70
5571;BMP180;2808;51.240;6.794;2022-10-03T18:09:26;102028.00;;;14.70
5571;BMP180;2808;51.240;6.794;2022-10-03T18:19:21;102012.00;;;14.50
5571;BMP180;2808;51.240;6.794;2022-10-03T18:21:59;102013.00;;;14.40
5571;BMP180;2808;51.240;6.794;2022-10-03T18:24:52;102019.00;;;14.40
5571;BMP180;2808;51.240;6.794;2022-10-03T18:27:41;102013.00;;;14.30
5571;BMP180;2808;51.240;6.794;2022-10-03T18:30:19;102015.00;;;14.30
5571;BMP180;2808;51.240;6.794;2022-10-03T18:32:49;102016.00;;;14.20
5571;BMP180;2808;51.240;6.794;2022-10-03T18:35:21;102020.00;;;14.20
5571;BMP180;2808;51.240;6.794;2022-10-03T18:37:54;102023.00;;;14.10
5571;BMP180;2808;51.240;6.794;2022-10-03T18:40:30;102023.00;;;14.10
5571;BMP180;2808;51.240;6.794;2022-10-03T18:43:02;102012.00;;;14.10
5571;BMP180;2808;51.240;6.794;2022-10-03T18:45:35;102011.00;;;14.00
5571;BMP180;2808;51.240;6.794;2022-10-03T18:48:10;102004.00;;;14.00
5571;BMP180;2808;51.240;6.794;2022-10-03T18:50:52;102005.00;;;14.00
5571;BMP180;2808;51.240;6.794;2022-10-03T18:53:29;102004.00;;;14.00